Time;durP1;ratioP1;P1;durP2;ratioP2;P2;SDS_P1;SDS_P2;PMS_P1;PMS_P2;Temp;Humidity;BMP_temperature;BMP_pressure;BME280_temperature;BME280_humidity;BME280_pressure;Samples;Min_cycle;Max_cycle;Signal;HPM_P1;HPM_P2
2023/03/22 00:00:49;;;;;;;18.80;14.32;;;10.40;99.90;;;;;;6214892;23;20062;-86
2023/03/22 00:03:15;;;;;;;17.55;14.50;;;10.40;99.90;;;;;;6187536;23;20035;-86
2023/03/22 00:05:41;;;;;;;19.02;15.00;;;10.40;99.90;;;;;;6189563;23;20019;-86
2023/03/22 00:08:07;;;;;;;16.48;13.82;;;10.30;99.90;;;;;;6215497;23;20016;-86
2023/03/22 00:10:35;;;;;;;18.95;13.93;;;10.30;99.90;;;;;;6211864;23;20480;-86
2023/03/22 00:13:01;;;;;;;17.88;14.68;;;10.30;99.90;;;;;;6219049;23;20028;-85
2023/03/22 00:15:28;;;;;;;16.10;13.10;;;10.30;99.90;;;;;;6216274;23;20347;-86
2023/03/22 00:17:55;;;;;;;14.98;12.45;;;10.20;99.90;;;;;;6218132;23;20016;-86
2023/03/22 00:20:22;;;;;;;15.50;11.70;;;10.20;99.90;;;;;;6218443;23;20013;-87
2023/03/22 00:22:49;;;;;;;15.02;12.32;;;10.20;99.90;;;;;;6219245;23;20019;-86
2023/03/22 00:25:15;;;;;;;15.98;12.18;;;10.20;99.90;;;;;;6218522;23;20023;-86
2023/03/22 00:27:41;;;;;;;14.82;11.93;;;10.10;99.90;;;;;;6224646;23;20122;-86
2023/03/22 00:30:08;;;;;;;17.17;11.95;;;10.10;99.90;;;;;;6231037;23;20020;-85
2023/03/22 00:32:34;;;;;;;16.52;12.05;;;10.10;99.90;;;;;;6228048;23;20053;-86
2023/03/22 00:35:01;;;;;;;18.50;12.65;;;10.00;99.90;;;;;;6214011;23;20020;-86
2023/03/22 00:37:32;;;;;;;16.63;12.13;;;10.00;99.90;;;;;;6210470;23;20016;-86
2023/03/22 00:39:59;;;;;;;12.65;9.55;;;9.90;99.90;;;;;;6213666;23;20051;-86
2023/03/22 00:42:24;;;;;;;17.83;11.38;;;9.90;99.90;;;;;;6212212;23;20008;-86
2023/03/22 00:44:50;;;;;;;15.20;10.18;;;9.90;99.90;;;;;;6185069;23;20005;-86
2023/03/22 00:47:16;;;;;;;13.02;9.85;;;10.00;99.90;;;;;;6209789;23;20017;-86
2023/03/22 00:49:41;;;;;;;15.48;9.45;;;9.90;99.90;;;;;;6210132;23;20159;-86
2023/03/22 00:52:07;;;;;;;13.32;9.05;;;9.90;99.90;;;;;;6212575;23;20049;-86
2023/03/22 00:54:33;;;;;;;15.15;9.20;;;9.90;99.90;;;;;;6211371;23;20079;-86
2023/03/22 00:56:58;;;;;;;16.98;9.05;;;9.90;99.90;;;;;;6217487;23;20016;-86
2023/03/22 00:59:24;;;;;;;16.25;9.20;;;9.90;99.90;;;;;;6218545;23;20051;-86
2023/03/22 01:01:49;;;;;;;15.48;8.98;;;9.90;99.90;;;;;;6212685;23;20020;-86
2023/03/22 01:04:16;;;;;;;11.88;8.77;;;9.90;99.90;;;;;;6210398;23;20023;-86
2023/03/22 01:06:43;;;;;;;16.15;9.00;;;9.90;99.90;;;;;;6213581;23;20017;-86
2023/03/22 01:09:13;;;;;;;12.85;8.00;;;9.90;99.90;;;;;;6213547;23;20089;-86
2023/03/22 01:11:42;;;;;;;15.60;8.60;;;10.00;99.90;;;;;;6215571;23;20013;-86
2023/03/22 01:14:08;;;;;;;14.98;7.93;;;10.00;99.90;;;;;;6215472;23;20282;-86
2023/03/22 01:16:35;;;;;;;13.70;8.52;;;10.00;99.90;;;;;;6185417;23;20373;-86
2023/03/22 01:19:02;;;;;;;14.38;8.32;;;10.00;99.90;;;;;;6212505;23;20008;-86
2023/03/22 01:21:28;;;;;;;13.35;8.20;;;10.00;99.90;;;;;;6211520;23;20385;-86
2023/03/22 01:23:54;;;;;;;15.30;8.55;;;9.90;99.90;;;;;;6185326;23;20083;-86
2023/03/22 01:26:19;;;;;;;14.20;8.25;;;9.90;99.90;;;;;;6184943;23;20027;-86
2023/03/22 01:28:45;;;;;;;12.98;7.45;;;9.90;99.90;;;;;;6183955;23;20043;-86
2023/03/22 01:31:10;;;;;;;12.80;7.78;;;10.00;99.90;;;;;;6210184;23;20354;-86
2023/03/22 01:33:36;;;;;;;13.82;8.32;;;9.90;99.90;;;;;;6212046;23;20039;-86
2023/03/22 01:36:02;;;;;;;14.40;7.57;;;10.00;99.90;;;;;;6184255;23;20112;-86
2023/03/22 01:38:28;;;;;;;15.25;7.78;;;10.00;99.90;;;;;;6184148;23;20035;-86
2023/03/22 01:40:54;;;;;;;11.90;6.97;;;10.00;99.90;;;;;;6211944;23;20051;-86
2023/03/22 01:43:20;;;;;;;14.00;7.85;;;9.90;99.90;;;;;;6184976;23;20039;-86
2023/03/22 01:45:46;;;;;;;14.68;7.55;;;10.00;99.90;;;;;;6184570;23;20016;-86
2023/03/22 01:48:18;;;;;;;14.25;8.23;;;10.00;99.90;;;;;;6211995;23;20386;-86
2023/03/22 01:51:07;;;;;;;11.77;6.80;;;10.00;99.90;;;;;;6184632;23;20017;-86
2023/03/22 01:53:38;;;;;;;13.55;7.43;;;10.00;99.90;;;;;;6185181;23;20012;-86
2023/03/22 01:56:04;;;;;;;13.02;7.25;;;10.00;99.90;;;;;;6186131;23;20024;-87
2023/03/22 01:58:32;;;;;;;14.23;7.53;;;10.00;99.90;;;;;;6158489;23;20020;-85
2023/03/22 02:00:58;;;;;;;13.25;7.65;;;10.00;99.90;;;;;;6159877;23;20013;-86
2023/03/22 02:03:50;;;;;;;14.07;6.93;;;10.00;99.90;;;;;;6184897;23;20011;-86
2023/03/22 02:06:17;;;;;;;14.82;7.72;;;9.90;99.90;;;;;;6194700;23;20056;-85
2023/03/22 02:08:43;;;;;;;12.50;6.72;;;9.90;99.90;;;;;;6185345;23;20478;-86
2023/03/22 02:11:15;;;;;;;12.57;6.43;;;9.90;99.90;;;;;;6209394;23;20028;-85
2023/03/22 02:13:54;;;;;;;12.43;6.82;;;9.90;99.90;;;;;;6184191;23;20088;-86
2023/03/22 02:16:50;;;;;;;12.38;6.70;;;9.90;99.90;;;;;;6183772;23;20035;-86
2023/03/22 02:19:54;;;;;;;14.40;7.40;;;9.90;99.90;;;;;;6210981;23;20012;-86
2023/03/22 02:22:43;;;;;;;12.38;7.35;;;9.90;99.90;;;;;;6185265;23;20066;-85
2023/03/22 02:25:34;;;;;;;13.38;6.25;;;9.80;99.90;;;;;;6185435;23;20106;-86
2023/03/22 02:28:07;;;;;;;13.17;6.47;;;9.80;99.90;;;;;;6185842;23;20452;-86
2023/03/22 02:30:48;;;;;;;13.13;6.30;;;9.80;99.90;;;;;;6212409;23;20024;-86
2023/03/22 02:33:13;;;;;;;13.38;6.13;;;9.80;99.90;;;;;;6212198;23;20015;-86
2023/03/22 02:35:52;;;;;;;13.55;7.13;;;9.90;99.90;;;;;;6211547;23;20009;-86
2023/03/22 02:38:27;;;;;;;13.90;5.88;;;9.90;99.90;;;;;;6184806;23;20027;-86
2023/03/22 02:41:21;;;;;;;13.68;6.10;;;9.90;99.90;;;;;;6212141;23;20012;-86
2023/03/22 02:44:15;;;;;;;14.93;5.65;;;9.90;99.90;;;;;;6210838;23;20381;-86
2023/03/22 02:46:49;;;;;;;12.05;5.65;;;9.90;99.90;;;;;;6213065;23;20043;-86
2023/03/22 02:49:33;;;;;;;14.57;5.88;;;9.80;99.90;;;;;;6212980;23;20056;-86
2023/03/22 02:52:21;;;;;;;13.75;5.70;;;9.90;99.90;;;;;;6185993;23;20016;-86
2023/03/22 02:55:20;;;;;;;11.05;5.20;;;9.80;99.90;;;;;;6185114;23;20019;-85
2023/03/22 02:58:10;;;;;;;14.38;5.38;;;9.90;99.90;;;;;;6177935;23;20021;-86
2023/03/22 03:00:37;;;;;;;11.57;5.43;;;9.80;99.90;;;;;;6213217;23;20012;-86
2023/03/22 03:03:11;;;;;;;13.27;5.65;;;9.90;99.90;;;;;;6212677;23;20020;-86
2023/03/22 03:05:43;;;;;;;13.45;5.30;;;9.80;99.90;;;;;;6186370;23;20071;-86
2023/03/22 03:08:12;;;;;;;12.55;5.20;;;9.80;99.90;;;;;;6185593;23;20012;-86
2023/03/22 03:10:40;;;;;;;13.48;5.28;;;9.80;99.90;;;;;;6211876;23;20013;-86
2023/03/22 03:13:11;;;;;;;14.45;5.50;;;9.80;99.90;;;;;;6212069;23;20363;-86
2023/03/22 03:15:41;;;;;;;12.98;5.72;;;9.80;99.90;;;;;;6212261;23;20434;-86
2023/03/22 03:18:31;;;;;;;13.95;5.80;;;9.80;99.90;;;;;;6186106;23;20020;-85
2023/03/22 03:21:28;;;;;;;11.82;5.22;;;9.80;99.90;;;;;;6186084;23;20013;-86
2023/03/22 03:24:26;;;;;;;13.13;5.22;;;9.80;99.90;;;;;;6211497;23;20009;-85
2023/03/22 03:27:22;;;;;;;11.98;5.05;;;9.80;99.90;;;;;;6184716;23;20014;-86
2023/03/22 03:30:03;;;;;;;13.68;4.90;;;9.80;99.90;;;;;;6184386;23;20047;-86
2023/03/22 03:32:41;;;;;;;11.23;4.75;;;9.80;99.90;;;;;;6184536;23;20036;-86
2023/03/22 03:35:16;;;;;;;12.95;4.90;;;9.80;99.90;;;;;;6212229;23;20013;-86
2023/03/22 03:37:51;;;;;;;10.98;4.78;;;9.80;99.90;;;;;;6186008;23;20012;-86
2023/03/22 03:40:26;;;;;;;12.95;4.40;;;9.80;99.90;;;;;;6211404;23;20330;-86
2023/03/22 03:42:54;;;;;;;11.02;4.60;;;9.80;99.90;;;;;;6184935;23;20012;-86
2023/03/22 03:45:21;;;;;;;12.55;4.85;;;9.80;99.90;;;;;;6210529;23;20312;-85
2023/03/22 03:47:54;;;;;;;11.70;5.07;;;9.80;99.90;;;;;;6212123;23;20008;-86
2023/03/22 03:50:20;;;;;;;12.23;4.80;;;9.80;99.90;;;;;;6184953;23;20016;-86
2023/03/22 03:52:46;;;;;;;12.15;4.57;;;9.80;99.90;;;;;;6212678;23;20021;-85
2023/03/22 03:55:12;;;;;;;12.18;4.97;;;9.70;99.90;;;;;;6184651;23;20099;-86
2023/03/22 03:57:37;;;;;;;13.60;4.70;;;9.70;99.90;;;;;;6212074;23;20384;-86
2023/03/22 04:00:04;;;;;;;11.15;4.55;;;9.70;99.90;;;;;;6185927;23;20678;-86
2023/03/22 04:02:30;;;;;;;11.88;4.60;;;9.70;99.90;;;;;;6210755;23;20080;-86
2023/03/22 04:04:55;;;;;;;11.10;4.40;;;9.70;99.90;;;;;;6186348;23;20371;-86
2023/03/22 04:07:21;;;;;;;12.95;5.45;;;9.80;99.90;;;;;;6184528;23;20100;-86
2023/03/22 04:09:47;;;;;;;11.98;5.00;;;9.80;99.90;;;;;;6211607;23;20023;-86
2023/03/22 04:12:12;;;;;;;13.75;5.55;;;9.70;99.90;;;;;;6212267;23;20024;-86
2023/03/22 04:14:38;;;;;;;11.68;5.38;;;9.80;99.90;;;;;;6212761;23;20017;-86
2023/03/22 04:17:04;;;;;;;13.63;6.00;;;9.70;99.90;;;;;;6212013;23;20312;-86
2023/03/22 04:19:30;;;;;;;12.32;5.68;;;9.80;99.90;;;;;;6211630;23;20020;-85
2023/03/22 04:21:55;;;;;;;13.07;6.07;;;9.80;99.90;;;;;;6185165;23;20017;-85
2023/03/22 04:24:21;;;;;;;12.77;6.13;;;9.80;99.90;;;;;;6211777;23;20012;-87
2023/03/22 04:26:47;;;;;;;18.00;7.13;;;9.80;99.90;;;;;;6184685;23;20016;-85
2023/03/22 04:29:13;;;;;;;12.60;7.00;;;9.80;99.90;;;;;;6211394;23;20024;-86
2023/03/22 04:31:39;;;;;;;12.40;7.68;;;9.80;99.90;;;;;;6210961;23;20008;-86
2023/03/22 04:34:05;;;;;;;13.30;7.82;;;9.80;99.90;;;;;;6212008;23;20031;-86
2023/03/22 04:36:38;;;;;;;14.55;8.23;;;9.80;99.90;;;;;;6183771;23;20020;-85
2023/03/22 04:39:06;;;;;;;12.18;8.50;;;9.80;99.90;;;;;;6212024;23;20008;-86
2023/03/22 04:41:33;;;;;;;15.40;9.50;;;9.80;99.90;;;;;;6211567;23;20017;-86
2023/03/22 04:44:02;;;;;;;14.98;10.57;;;9.80;99.90;;;;;;6184634;23;20020;-86
2023/03/22 04:46:35;;;;;;;16.83;12.60;;;9.90;99.90;;;;;;6184169;23;20023;-86
2023/03/22 04:49:02;;;;;;;16.98;13.38;;;10.00;99.90;;;;;;6211967;23;20016;-86
2023/03/22 04:51:29;;;;;;;17.15;13.30;;;10.10;99.90;;;;;;6184896;23;20062;-86
2023/03/22 04:53:54;;;;;;;18.30;14.40;;;10.10;99.90;;;;;;6184574;23;20015;-87
2023/03/22 04:56:21;;;;;;;20.95;14.45;;;10.20;99.90;;;;;;6210228;23;20316;-87
2023/03/22 04:58:46;;;;;;;19.63;14.82;;;10.20;99.90;;;;;;6183819;23;20442;-86
2023/03/22 05:01:14;;;;;;;20.30;14.68;;;10.20;99.90;;;;;;6184233;23;20012;-85
2023/03/22 05:03:41;;;;;;;20.77;16.13;;;10.20;99.90;;;;;;6183717;23;20457;-86
2023/03/22 05:06:08;;;;;;;18.27;14.60;;;10.20;99.90;;;;;;6184269;23;20361;-86
2023/03/22 05:08:34;;;;;;;20.58;15.48;;;10.20;99.90;;;;;;6210606;23;20460;-86
2023/03/22 05:11:06;;;;;;;18.98;15.88;;;10.30;99.90;;;;;;6211632;23;20026;-86
2023/03/22 05:13:32;;;;;;;19.83;16.13;;;10.30;99.90;;;;;;6183873;23;20015;-86
2023/03/22 05:15:58;;;;;;;19.10;16.13;;;10.30;99.90;;;;;;6211098;23;20012;-86
2023/03/22 05:18:25;;;;;;;19.13;15.52;;;10.20;99.90;;;;;;6211260;23;20017;-86
2023/03/22 05:20:52;;;;;;;19.83;16.52;;;10.20;99.90;;;;;;6184772;23;20013;-86
2023/03/22 05:23:19;;;;;;;20.15;15.93;;;10.20;99.90;;;;;;6210914;23;20355;-86
2023/03/22 05:25:50;;;;;;;19.55;17.45;;;10.20;99.90;;;;;;6185004;23;20023;-85
2023/03/22 05:28:21;;;;;;;20.92;16.73;;;10.20;99.90;;;;;;6210360;23;20017;-87
2023/03/22 05:30:48;;;;;;;18.88;16.73;;;10.20;99.90;;;;;;6211730;23;20438;-86
2023/03/22 05:33:15;;;;;;;21.30;17.08;;;10.20;99.90;;;;;;6210418;23;20008;-86
2023/03/22 05:35:41;;;;;;;19.00;16.70;;;10.20;99.90;;;;;;6184166;23;20017;-86
2023/03/22 05:38:08;;;;;;;18.85;16.77;;;10.20;99.90;;;;;;6184345;23;20012;-86
2023/03/22 05:40:33;;;;;;;20.40;16.95;;;10.20;99.90;;;;;;6211202;23;20450;-85
2023/03/22 05:42:59;;;;;;;19.70;16.45;;;10.20;99.90;;;;;;6183478;23;20015;-87
2023/03/22 05:45:25;;;;;;;19.98;16.52;;;10.20;99.90;;;;;;6182798;23;20023;-90
2023/03/22 05:47:52;;;;;;;21.55;16.80;;;10.20;99.90;;;;;;6184029;23;20096;-85
2023/03/22 05:50:20;;;;;;;20.27;16.65;;;10.10;99.90;;;;;;6182850;23;20469;-85
2023/03/22 05:52:46;;;;;;;19.27;16.00;;;10.20;99.90;;;;;;6185468;23;20019;-86
2023/03/22 05:55:16;;;;;;;19.08;16.67;;;10.20;99.90;;;;;;6184546;23;20008;-87
2023/03/22 05:57:42;;;;;;;22.00;17.10;;;10.20;99.90;;;;;;6184842;23;20012;-86
2023/03/22 06:00:12;;;;;;;18.77;16.38;;;10.10;99.90;;;;;;6185109;23;20091;-85
2023/03/22 06:02:38;;;;;;;19.13;15.82;;;10.10;99.90;;;;;;6185274;23;20017;-86
2023/03/22 06:05:05;;;;;;;21.42;16.73;;;10.10;99.90;;;;;;6184817;23;20091;-86
2023/03/22 06:07:31;;;;;;;18.67;16.35;;;10.10;99.90;;;;;;6182893;23;20104;-85
2023/03/22 06:09:56;;;;;;;18.25;15.43;;;10.20;99.90;;;;;;6197501;23;20048;-84
2023/03/22 06:12:24;;;;;;;20.52;16.88;;;10.20;99.90;;;;;;6208649;23;20031;-85
2023/03/22 06:14:50;;;;;;;18.73;15.73;;;10.20;99.90;;;;;;6210797;23;20035;-85
2023/03/22 06:17:16;;;;;;;19.02;15.65;;;10.20;99.90;;;;;;6208753;23;20012;-87
2023/03/22 06:19:42;;;;;;;19.02;15.43;;;10.20;99.90;;;;;;6211026;23;20308;-85
2023/03/22 06:22:07;;;;;;;19.60;15.93;;;10.20;99.90;;;;;;6209436;23;20013;-87
2023/03/22 06:24:33;;;;;;;19.00;15.40;;;10.20;99.90;;;;;;6210143;23;20446;-85
2023/03/22 06:26:59;;;;;;;17.15;14.90;;;10.20;99.90;;;;;;6212055;23;20338;-85
2023/03/22 06:29:25;;;;;;;20.05;16.10;;;10.30;99.90;;;;;;6207967;23;20024;-85
2023/03/22 06:31:50;;;;;;;18.40;14.75;;;10.30;99.90;;;;;;6211200;23;20244;-84
2023/03/22 06:34:16;;;;;;;17.30;14.20;;;10.30;99.90;;;;;;6207864;23;20043;-83
2023/03/22 06:36:42;;;;;;;19.80;14.88;;;10.40;99.90;;;;;;6207715;23;20082;-85
2023/03/22 06:39:08;;;;;;;18.17;13.95;;;10.40;99.90;;;;;;6210815;23;20017;-84
2023/03/22 06:41:34;;;;;;;17.35;14.18;;;10.50;99.90;;;;;;6208418;23;20027;-86
2023/03/22 06:44:01;;;;;;;17.17;13.30;;;10.50;99.90;;;;;;6209679;23;20020;-85
2023/03/22 06:46:27;;;;;;;16.40;13.32;;;10.50;99.90;;;;;;6207937;23;20366;-86
2023/03/22 06:48:52;;;;;;;17.30;13.05;;;10.50;99.90;;;;;;6211697;23;20070;-86
2023/03/22 06:51:18;;;;;;;16.75;13.15;;;10.60;99.90;;;;;;6209273;23;20460;-88
2023/03/22 06:53:44;;;;;;;16.73;13.15;;;10.60;99.90;;;;;;6209580;23;20024;-85
2023/03/22 06:56:10;;;;;;;15.15;12.25;;;10.70;99.90;;;;;;6208568;23;20087;-84
2023/03/22 06:58:36;;;;;;;16.10;12.05;;;10.70;99.90;;;;;;6210164;23;20016;-90
2023/03/22 07:01:02;;;;;;;14.40;11.63;;;10.80;99.90;;;;;;6205819;23;20457;-85
2023/03/22 07:03:28;;;;;;;15.45;11.88;;;10.80;99.90;;;;;;6181766;23;20083;-86
2023/03/22 07:06:01;;;;;;;15.13;11.60;;;10.80;99.90;;;;;;6209744;23;20489;-86
2023/03/22 07:08:26;;;;;;;16.15;11.40;;;10.90;99.90;;;;;;6211317;23;20017;-86
2023/03/22 07:10:52;;;;;;;15.25;11.18;;;10.90;99.90;;;;;;6185873;23;20477;-85
2023/03/22 07:13:17;;;;;;;15.80;11.02;;;10.90;99.90;;;;;;6185978;23;20016;-86
2023/03/22 07:15:43;;;;;;;14.93;10.98;;;10.90;99.90;;;;;;6186103;23;20020;-86
2023/03/22 07:18:09;;;;;;;13.50;10.60;;;11.00;99.90;;;;;;6185386;23;20016;-86
2023/03/22 07:20:40;;;;;;;14.77;10.48;;;11.00;99.90;;;;;;6212820;23;20234;-86
2023/03/22 07:23:06;;;;;;;14.93;10.38;;;11.00;99.90;;;;;;6185516;23;20019;-87
2023/03/22 07:25:32;;;;;;;14.27;10.23;;;11.00;99.90;;;;;;6185184;23;20427;-85
2023/03/22 07:27:59;;;;;;;14.57;10.00;;;11.00;99.90;;;;;;6212624;23;20018;-88
2023/03/22 07:30:25;;;;;;;15.90;9.55;;;11.00;99.90;;;;;;6212618;23;20016;-87
2023/03/22 07:32:50;;;;;;;12.88;9.40;;;11.00;99.90;;;;;;6186295;23;20020;-86
2023/03/22 07:35:17;;;;;;;15.60;9.50;;;11.10;99.90;;;;;;6186077;23;20036;-85
2023/03/22 07:37:43;;;;;;;14.05;9.43;;;11.10;99.90;;;;;;6213422;23;20017;-87
2023/03/22 07:40:10;;;;;;;14.52;9.30;;;11.10;99.90;;;;;;6213003;23;20013;-86
2023/03/22 07:42:36;;;;;;;13.65;9.50;;;11.10;99.90;;;;;;6212809;23;20084;-85
2023/03/22 07:45:02;;;;;;;13.23;9.00;;;11.20;99.90;;;;;;6212640;23;20086;-85
2023/03/22 07:47:28;;;;;;;12.73;8.88;;;11.10;99.90;;;;;;6212170;23;20402;-86
2023/03/22 07:49:53;;;;;;;11.80;8.40;;;11.20;99.90;;;;;;6212572;23;20017;-86
2023/03/22 07:52:19;;;;;;;12.85;8.23;;;11.20;99.90;;;;;;6183909;23;20025;-85
2023/03/22 07:54:45;;;;;;;14.27;8.88;;;11.20;99.90;;;;;;6184542;23;20055;-84
2023/03/22 07:57:10;;;;;;;11.43;7.97;;;11.20;99.90;;;;;;6183819;23;20012;-86
2023/03/22 07:59:36;;;;;;;13.07;7.70;;;11.20;99.90;;;;;;6186715;23;20385;-85
2023/03/22 08:02:02;;;;;;;13.00;8.43;;;11.20;99.90;;;;;;6212782;23;20075;-86
2023/03/22 08:04:29;;;;;;;14.32;8.55;;;11.20;99.90;;;;;;6184889;23;20009;-85
2023/03/22 08:06:57;;;;;;;14.20;7.82;;;11.10;99.90;;;;;;6213181;23;20021;-85
2023/03/22 08:09:24;;;;;;;12.57;8.07;;;11.20;99.90;;;;;;6190620;23;20442;-85
2023/03/22 08:11:50;;;;;;;13.20;8.23;;;11.10;99.90;;;;;;6211154;23;20184;-84
2023/03/22 08:14:16;;;;;;;13.45;7.93;;;11.10;99.90;;;;;;6210659;23;20012;-83
2023/03/22 08:16:43;;;;;;;13.70;7.95;;;11.10;99.90;;;;;;6210928;23;20016;-86
2023/03/22 08:19:12;;;;;;;14.07;8.18;;;11.10;99.90;;;;;;6212723;23;20008;-85
2023/03/22 08:21:37;;;;;;;12.20;7.53;;;11.20;99.90;;;;;;6213410;23;20323;-86
2023/03/22 08:24:04;;;;;;;14.10;7.43;;;11.20;99.90;;;;;;6211773;23;20019;-84
2023/03/22 08:26:29;;;;;;;13.27;7.28;;;11.30;99.90;;;;;;6211731;23;20024;-85
2023/03/22 08:28:56;;;;;;;14.45;8.35;;;11.30;99.90;;;;;;6209608;23;20034;-86
2023/03/22 08:31:22;;;;;;;12.48;7.60;;;11.30;99.90;;;;;;6210551;23;20019;-85
2023/03/22 08:33:48;;;;;;;12.30;7.07;;;11.30;99.90;;;;;;6210629;23;20020;-87
2023/03/22 08:36:17;;;;;;;12.05;7.25;;;11.30;99.90;;;;;;6209184;23;20016;-86
2023/03/22 08:38:44;;;;;;;13.00;7.18;;;11.30;99.90;;;;;;6213258;23;20012;-87
2023/03/22 08:41:11;;;;;;;11.55;6.78;;;11.30;99.90;;;;;;6212446;23;20016;-85
2023/03/22 08:43:36;;;;;;;10.85;6.28;;;11.40;99.90;;;;;;6185932;23;20012;-86
2023/03/22 08:46:03;;;;;;;13.73;7.05;;;11.40;99.90;;;;;;6185721;23;20342;-86
2023/03/22 08:48:29;;;;;;;13.18;6.78;;;11.50;99.90;;;;;;6209339;23;20096;-87
2023/03/22 08:50:55;;;;;;;12.57;7.03;;;11.50;99.90;;;;;;6210498;23;20052;-84
2023/03/22 08:53:21;;;;;;;12.32;6.03;;;11.50;99.90;;;;;;6209741;23;20043;-84
2023/03/22 08:55:47;;;;;;;14.13;6.63;;;11.60;99.90;;;;;;6209774;23;20389;-85
2023/03/22 08:58:15;;;;;;;11.15;5.80;;;11.70;99.90;;;;;;6186273;23;20045;-86
2023/03/22 09:00:42;;;;;;;12.32;6.35;;;11.70;99.90;;;;;;6209935;23;20071;-85
2023/03/22 09:03:07;;;;;;;12.82;5.85;;;11.80;99.90;;;;;;6210774;23;20023;-86
2023/03/22 09:05:33;;;;;;;12.45;6.30;;;11.90;99.90;;;;;;6214877;23;20343;-88
2023/03/22 09:08:00;;;;;;;13.63;6.20;;;12.00;99.90;;;;;;6217687;23;20016;-86
2023/03/22 09:10:27;;;;;;;10.82;6.10;;;12.00;99.90;;;;;;6216719;23;20024;-84
2023/03/22 09:12:52;;;;;;;13.65;5.90;;;12.10;99.90;;;;;;6220113;23;20063;-87
2023/03/22 09:15:18;;;;;;;12.77;5.65;;;12.10;99.90;;;;;;6218337;23;20366;-84
2023/03/22 09:17:44;;;;;;;12.45;5.63;;;12.10;99.90;;;;;;6216895;23;20371;-85
2023/03/22 09:20:10;;;;;;;13.02;5.57;;;12.20;99.90;;;;;;6210763;23;20044;-87
2023/03/22 09:22:36;;;;;;;11.48;5.50;;;12.20;99.90;;;;;;6214068;23;20013;-88
2023/03/22 09:25:02;;;;;;;13.90;5.78;;;12.20;99.90;;;;;;6213146;23;20013;-88
2023/03/22 09:27:28;;;;;;;12.02;5.47;;;12.20;99.90;;;;;;6213892;23;20012;-86
2023/03/22 09:29:54;;;;;;;11.43;5.45;;;12.20;99.90;;;;;;6209904;23;20017;-87
2023/03/22 09:32:20;;;;;;;10.88;5.40;;;12.20;99.90;;;;;;6213552;23;20390;-86
2023/03/22 09:34:45;;;;;;;9.57;4.95;;;12.20;99.90;;;;;;6210048;23;20013;-85
2023/03/22 09:37:11;;;;;;;13.13;5.15;;;12.10;99.90;;;;;;6213212;23;20027;-87
2023/03/22 09:39:38;;;;;;;12.05;5.68;;;12.10;99.90;;;;;;6214361;23;20012;-87
2023/03/22 09:42:20;;;;;;;9.93;5.05;;;12.20;99.90;;;;;;6214233;23;20009;-87
2023/03/22 09:44:49;;;;;;;10.80;5.10;;;12.20;99.90;;;;;;6214850;23;20084;-87
2023/03/22 09:47:25;;;;;;;11.98;5.40;;;12.20;99.90;;;;;;6210380;23;20020;-87
2023/03/22 09:50:02;;;;;;;11.90;5.18;;;12.20;99.90;;;;;;6213258;23;20008;-88
2023/03/22 09:52:29;;;;;;;10.80;4.97;;;12.20;99.90;;;;;;6211632;23;20012;-86
2023/03/22 09:54:54;;;;;;;13.80;5.95;;;12.10;99.90;;;;;;6212937;23;20043;-88
2023/03/22 09:57:34;;;;;;;10.18;4.75;;;12.10;99.90;;;;;;6207764;23;20365;-86
2023/03/22 10:00:26;;;;;;;11.38;4.65;;;12.00;99.90;;;;;;6212856;23;20127;-86
2023/03/22 10:03:30;;;;;;;13.05;4.70;;;11.90;99.90;;;;;;6211782;23;20080;-87
2023/03/22 10:06:07;;;;;;;13.30;5.70;;;11.90;99.90;;;;;;6212239;23;20013;-87
2023/03/22 10:08:47;;;;;;;12.40;5.20;;;11.80;99.90;;;;;;6212535;23;20331;-87
2023/03/22 10:11:43;;;;;;;11.38;4.60;;;11.80;99.90;;;;;;6211992;23;20337;-87
2023/03/22 10:14:30;;;;;;;13.77;5.13;;;11.80;99.90;;;;;;6185400;23;20023;-87
2023/03/22 10:16:59;;;;;;;10.73;4.85;;;11.70;99.90;;;;;;6212453;23;20070;-87
2023/03/22 10:19:36;;;;;;;11.80;5.47;;;11.70;99.90;;;;;;6184681;23;20012;-87
2023/03/22 10:22:04;;;;;;;11.32;5.03;;;11.70;99.90;;;;;;6185746;23;20067;-87
2023/03/22 10:24:37;;;;;;;12.10;4.97;;;11.70;99.90;;;;;;6185012;23;20374;-87
2023/03/22 10:27:09;;;;;;;10.63;4.97;;;11.80;99.90;;;;;;6184968;23;20035;-87
2023/03/22 10:29:38;;;;;;;11.63;5.25;;;11.80;99.90;;;;;;6185545;23;20017;-87
2023/03/22 10:32:13;;;;;;;14.52;5.60;;;11.70;99.90;;;;;;6211773;23;20021;-88
2023/03/22 10:34:38;;;;;;;13.75;5.72;;;11.70;99.90;;;;;;6185427;23;20016;-87
2023/03/22 10:37:06;;;;;;;11.70;5.55;;;11.60;99.90;;;;;;6212568;23;20311;-86
2023/03/22 10:39:53;;;;;;;10.52;5.22;;;11.70;99.90;;;;;;6212294;23;20017;-87
2023/03/22 10:42:24;;;;;;;9.80;5.22;;;11.60;99.90;;;;;;6182665;23;20342;-88
2023/03/22 10:44:56;;;;;;;13.75;5.57;;;11.60;99.90;;;;;;6213350;23;20020;-86
2023/03/22 10:47:32;;;;;;;12.43;5.35;;;11.60;99.90;;;;;;6185521;23;20043;-85
2023/03/22 10:50:02;;;;;;;13.30;5.75;;;11.60;99.90;;;;;;6212890;23;20016;-84
2023/03/22 10:52:43;;;;;;;10.88;5.07;;;11.50;99.90;;;;;;6212172;23;20016;-85
2023/03/22 10:55:14;;;;;;;11.05;5.10;;;11.50;99.90;;;;;;6186247;23;20032;-85
2023/03/22 10:57:41;;;;;;;12.30;5.07;;;11.50;99.90;;;;;;6186389;23;20095;-91
2023/03/22 11:00:11;;;;;;;11.82;4.80;;;11.50;99.90;;;;;;6162296;23;20012;-88
2023/03/22 11:03:06;;;;;;;10.40;5.22;;;11.50;99.90;;;;;;6187324;23;20346;-86
2023/03/22 11:05:32;;;;;;;10.52;4.43;;;11.50;99.90;;;;;;6156009;23;20017;-85
2023/03/22 11:08:01;;;;;;;10.85;4.72;;;11.50;99.90;;;;;;6214062;23;20096;-86
2023/03/22 11:10:31;;;;;;;10.52;4.60;;;11.50;99.90;;;;;;6212285;23;20217;-87
2023/03/22 11:13:06;;;;;;;12.20;4.88;;;11.50;99.90;;;;;;6186768;23;20500;-87
2023/03/22 11:15:34;;;;;;;10.68;4.63;;;11.40;99.90;;;;;;6186811;23;20013;-87
2023/03/22 11:18:14;;;;;;;11.02;4.68;;;11.40;99.90;;;;;;6187155;23;20063;-87
2023/03/22 11:20:41;;;;;;;10.85;4.65;;;11.40;99.90;;;;;;6187124;23;20013;-87
2023/03/22 11:23:12;;;;;;;9.10;4.25;;;11.30;99.90;;;;;;6213936;23;20012;-91
2023/03/22 11:25:45;;;;;;;10.05;4.53;;;11.40;99.90;;;;;;6213416;23;20052;-87
2023/03/22 11:28:18;;;;;;;12.23;4.65;;;11.30;99.90;;;;;;6186494;23;20016;-88
2023/03/22 11:31:17;;;;;;;10.70;5.18;;;11.30;99.90;;;;;;6187097;23;20024;-89
2023/03/22 11:33:54;;;;;;;10.75;4.55;;;11.30;99.90;;;;;;6132708;23;20024;-90
2023/03/22 11:36:20;;;;;;;12.48;4.93;;;11.30;99.90;;;;;;6160985;23;20346;-89
2023/03/22 11:38:46;;;;;;;10.55;4.60;;;11.40;99.90;;;;;;6187428;23;20020;-87
2023/03/22 11:41:26;;;;;;;10.13;4.57;;;11.40;99.90;;;;;;6186355;23;20083;-88
2023/03/22 11:43:55;;;;;;;9.65;4.68;;;11.40;99.90;;;;;;6214175;23;20312;-89
2023/03/22 11:46:22;;;;;;;10.65;4.20;;;11.40;99.90;;;;;;6186551;23;20274;-88
2023/03/22 11:48:50;;;;;;;11.50;4.40;;;11.40;99.90;;;;;;6184820;23;20043;-89
2023/03/22 11:51:25;;;;;;;9.48;4.53;;;11.40;99.90;;;;;;6212907;23;20422;-87
2023/03/22 11:53:56;;;;;;;11.73;4.90;;;11.50;99.90;;;;;;6211582;23;20013;-86
2023/03/22 11:56:29;;;;;;;;;;;11.50;99.90;;;;;;6161710;23;20012;-87
2023/03/22 11:59:29;;;;;;;10.13;4.63;;;11.40;99.90;;;;;;6186758;23;19920;-85
2023/03/22 12:02:02;;;;;;;8.68;4.70;;;11.40;99.90;;;;;;6186602;23;20024;-86
2023/03/22 12:04:30;;;;;;;10.55;5.75;;;11.40;99.90;;;;;;6185830;23;20017;-87
2023/03/22 12:06:59;;;;;;;10.20;5.45;;;11.40;99.90;;;;;;6185867;23;20074;-87
2023/03/22 12:09:40;;;;;;;11.25;5.63;;;11.40;99.90;;;;;;6211689;23;20021;-86
2023/03/22 12:12:12;;;;;;;13.13;6.07;;;11.40;99.90;;;;;;6186528;23;20043;-86
2023/03/22 12:14:46;;;;;;;11.63;6.18;;;11.40;99.90;;;;;;6186289;23;20066;-87
2023/03/22 12:17:19;;;;;;;12.75;5.80;;;11.40;99.90;;;;;;6212484;23;20017;-84
2023/03/22 12:20:13;;;;;;;11.02;6.03;;;11.40;99.90;;;;;;6186594;23;20342;-86
2023/03/22 12:22:44;;;;;;;10.38;6.20;;;11.30;99.90;;;;;;6185714;23;20020;-86
2023/03/22 12:25:15;;;;;;;11.43;6.10;;;11.30;99.90;;;;;;6212443;23;20087;-86
2023/03/22 12:27:46;;;;;;;11.20;5.97;;;11.30;99.90;;;;;;6186120;23;20088;-87
2023/03/22 12:30:29;;;;;;;11.30;5.95;;;11.30;99.90;;;;;;6213281;23;20012;-87
2023/03/22 12:33:08;;;;;;;12.07;6.10;;;11.20;99.90;;;;;;6186121;23;20440;-87
2023/03/22 12:35:37;;;;;;;11.77;5.55;;;11.30;99.90;;;;;;6212698;23;20013;-86
2023/03/22 12:38:34;;;;;;;11.18;5.43;;;11.30;99.90;;;;;;6212008;23;20059;-87
2023/03/22 12:41:04;;;;;;;9.50;5.32;;;11.30;99.90;;;;;;6186242;23;20052;-88
2023/03/22 12:43:42;;;;;;;13.45;6.00;;;11.30;99.90;;;;;;6186166;23;20417;-86
2023/03/22 12:46:19;;;;;;;10.98;5.57;;;11.30;99.90;;;;;;6185111;23;20036;-90
2023/03/22 12:48:56;;;;;;;10.75;5.55;;;11.30;99.90;;;;;;6186139;23;20023;-90
2023/03/22 12:51:22;;;;;;;9.85;5.72;;;11.30;99.90;;;;;;6212052;23;20019;-87
2023/03/22 12:53:52;;;;;;;10.95;5.80;;;11.30;99.90;;;;;;6186064;23;20004;-86